createdAt,value
2024-01-16T00:00:17.797Z,2.10
2024-01-16T00:02:45.606Z,0.82
2024-01-16T00:05:14.748Z,2.47
2024-01-16T00:07:42.683Z,1.45
2024-01-16T00:10:11.976Z,1.55
2024-01-16T00:12:41.155Z,1.50
2024-01-16T00:15:09.949Z,1.40
2024-01-16T00:17:37.878Z,1.50
2024-01-16T00:20:07.751Z,1.38
2024-01-16T00:22:36.849Z,0.63
2024-01-16T00:25:05.191Z,1.30
2024-01-16T00:27:33.015Z,1.20
2024-01-16T00:30:00.843Z,1.13
2024-01-16T00:32:28.725Z,1.70
2024-01-16T00:34:56.616Z,1.58
2024-01-16T00:37:24.391Z,1.63
2024-01-16T00:39:53.552Z,0.70
2024-01-16T00:42:21.296Z,1.15
2024-01-16T00:44:49.199Z,0.95
2024-01-16T00:47:17.133Z,2.20
2024-01-16T00:49:45.030Z,1.42
2024-01-16T00:52:12.846Z,1.52
2024-01-16T00:54:41.168Z,1.00
2024-01-16T00:57:10.343Z,3.28
2024-01-16T00:59:38.676Z,1.55
2024-01-16T01:02:06.487Z,1.77
2024-01-16T01:04:34.969Z,1.30
2024-01-16T01:07:02.837Z,0.15
2024-01-16T01:09:30.623Z,1.65
2024-01-16T01:11:58.425Z,2.08
2024-01-16T01:14:30.386Z,0.93
2024-01-16T01:16:58.414Z,1.15
2024-01-16T01:19:26.296Z,1.83
2024-01-16T01:21:54.189Z,1.70
2024-01-16T01:24:21.979Z,1.88
2024-01-16T01:26:49.841Z,2.40
2024-01-16T01:29:18.408Z,2.00
2024-01-16T01:31:49.562Z,1.85
2024-01-16T01:34:17.785Z,2.22
2024-01-16T01:36:45.618Z,2.22
2024-01-16T01:39:13.466Z,0.73
2024-01-16T01:41:41.362Z,1.25
2024-01-16T01:44:16.497Z,1.70
2024-01-16T01:46:44.525Z,1.83
2024-01-16T01:49:13.839Z,1.58
2024-01-16T01:51:41.758Z,1.85
2024-01-16T01:54:10.277Z,0.68
2024-01-16T01:56:38.308Z,0.98
2024-01-16T01:59:07.376Z,1.85
2024-01-16T02:01:36.543Z,1.67
2024-01-16T02:04:04.724Z,1.92
2024-01-16T02:06:34.330Z,0.93
2024-01-16T02:09:02.110Z,0.90
2024-01-16T02:11:30.104Z,6.25
2024-01-16T02:13:57.909Z,1.75
2024-01-16T02:16:26.254Z,1.75
2024-01-16T02:18:54.531Z,1.58
2024-01-16T02:21:23.733Z,1.10
2024-01-16T02:23:53.024Z,1.38
2024-01-16T02:26:20.958Z,1.58
2024-01-16T02:28:48.722Z,2.13
2024-01-16T02:31:17.635Z,0.68
2024-01-16T02:33:45.690Z,1.73
2024-01-16T02:36:13.623Z,2.22
2024-01-16T02:38:43.869Z,2.45
2024-01-16T02:41:15.733Z,1.35
2024-01-16T02:43:43.490Z,1.63
2024-01-16T02:46:11.552Z,2.30
2024-01-16T02:48:39.818Z,2.17
2024-01-16T02:51:07.647Z,1.95
2024-01-16T02:53:35.580Z,1.90
2024-01-16T02:56:03.478Z,2.35
2024-01-16T02:58:32.874Z,2.05
2024-01-16T03:00:59.851Z,2.38
2024-01-16T03:03:28.755Z,2.20
2024-01-16T03:05:57.386Z,1.77
2024-01-16T03:08:25.428Z,2.60
2024-01-16T03:10:53.279Z,1.85
2024-01-16T03:13:21.045Z,2.03
2024-01-16T03:15:50.205Z,2.38
2024-01-16T03:18:18.205Z,2.80
2024-01-16T03:20:46.131Z,3.42
2024-01-16T03:23:14.870Z,2.63
2024-01-16T03:25:42.701Z,1.80
2024-01-16T03:28:11.633Z,3.33
2024-01-16T03:30:39.539Z,1.92
2024-01-16T03:33:08.813Z,3.17
2024-01-16T03:35:36.768Z,2.55
2024-01-16T03:38:05.109Z,2.35
2024-01-16T03:40:35.371Z,2.40
2024-01-16T03:43:03.612Z,1.35
2024-01-16T03:45:31.450Z,4.03
2024-01-16T03:47:59.290Z,1.80
2024-01-16T03:50:28.576Z,2.97
2024-01-16T03:52:56.425Z,2.72
2024-01-16T03:55:24.237Z,2.55
2024-01-16T03:57:52.659Z,3.35
2024-01-16T04:00:20.408Z,3.72
2024-01-16T04:02:48.397Z,1.20
2024-01-16T04:05:16.340Z,1.50
2024-01-16T04:07:45.496Z,2.38
2024-01-16T04:10:13.284Z,3.30
2024-01-16T04:12:41.114Z,3.47
2024-01-16T04:15:09.783Z,2.88
2024-01-16T04:17:37.553Z,3.53
2024-01-16T04:20:07.980Z,3.90
2024-01-16T04:22:35.797Z,1.25
2024-01-16T04:25:06.046Z,2.97
2024-01-16T04:27:34.055Z,2.35
2024-01-16T04:30:01.997Z,3.10
2024-01-16T04:32:30.000Z,3.65
2024-01-16T04:34:57.886Z,2.97
2024-01-16T04:37:26.129Z,3.05
2024-01-16T04:39:55.365Z,3.20
2024-01-16T04:42:24.857Z,4.05
2024-01-16T04:44:52.958Z,2.97
2024-01-16T04:47:21.054Z,2.97
2024-01-16T04:49:49.257Z,3.17
2024-01-16T04:52:17.286Z,3.13
2024-01-16T04:54:46.799Z,2.65
2024-01-16T04:57:14.858Z,3.17
2024-01-16T04:59:44.421Z,3.50
2024-01-16T05:02:12.897Z,2.35
2024-01-16T05:04:40.866Z,2.20
2024-01-16T05:07:08.938Z,3.08
2024-01-16T05:09:36.899Z,2.97
2024-01-16T05:12:05.674Z,2.60
2024-01-16T05:14:33.701Z,3.80
2024-01-16T05:17:03.607Z,4.25
2024-01-16T05:19:31.603Z,2.83
2024-01-16T05:21:59.727Z,2.00
2024-01-16T05:24:27.752Z,2.45
2024-01-16T05:26:55.817Z,3.90
2024-01-16T05:29:23.838Z,2.05
2024-01-16T05:31:52.893Z,3.10
2024-01-16T05:34:22.491Z,3.30
2024-01-16T05:36:50.479Z,3.25
2024-01-16T05:39:18.478Z,2.40
2024-01-16T05:41:46.518Z,2.88
2024-01-16T05:44:14.592Z,2.28
2024-01-16T05:46:42.606Z,1.75
2024-01-16T05:49:10.658Z,3.28
2024-01-16T05:51:40.060Z,3.75
2024-01-16T05:54:07.973Z,2.72
2024-01-16T05:56:36.247Z,3.63
2024-01-16T05:59:04.217Z,2.28
2024-01-16T06:01:32.235Z,2.35
2024-01-16T06:04:00.937Z,2.00
2024-01-16T06:06:28.924Z,1.95
2024-01-16T06:08:59.919Z,2.63
2024-01-16T06:11:32.449Z,1.40
2024-01-16T06:14:00.711Z,4.22
2024-01-16T06:16:28.955Z,2.55
2024-01-16T06:18:57.118Z,2.65
2024-01-16T06:21:25.262Z,2.38
2024-01-16T06:23:53.302Z,3.08
2024-01-16T06:26:22.822Z,3.83
2024-01-16T06:28:50.932Z,3.25
2024-01-16T06:31:19.273Z,3.80
2024-01-16T06:33:47.523Z,2.47
2024-01-16T06:36:15.669Z,2.85
2024-01-16T06:38:43.652Z,4.22
2024-01-16T06:41:11.516Z,3.70
2024-01-16T06:43:41.576Z,2.70
2024-01-16T06:46:09.859Z,4.32
2024-01-16T06:48:38.998Z,3.33
2024-01-16T06:51:09.056Z,3.22
2024-01-16T06:53:37.058Z,3.03
2024-01-16T06:56:05.399Z,3.22
2024-01-16T06:58:33.315Z,2.70
2024-01-16T07:01:02.640Z,2.03
2024-01-16T07:03:30.599Z,3.10
2024-01-16T07:05:58.650Z,2.65
2024-01-16T07:08:26.638Z,2.45
2024-01-16T07:10:54.765Z,2.35
2024-01-16T07:13:22.804Z,2.92
2024-01-16T07:15:50.802Z,2.30
2024-01-16T07:18:20.229Z,1.90
2024-01-16T07:20:48.458Z,2.20
2024-01-16T07:23:16.725Z,3.53
2024-01-16T07:25:44.828Z,2.45
2024-01-16T07:28:12.850Z,3.03
2024-01-16T07:30:41.086Z,3.25
2024-01-16T07:33:09.234Z,2.75
2024-01-16T07:35:38.931Z,4.15
2024-01-16T07:38:06.904Z,2.63
2024-01-16T07:40:34.856Z,2.90
2024-01-16T07:43:02.909Z,3.33
2024-01-16T07:45:30.928Z,3.22
2024-01-16T07:47:59.317Z,3.80
2024-01-16T07:50:27.403Z,3.13
2024-01-16T07:52:56.780Z,3.42
2024-01-16T07:55:25.479Z,3.45
2024-01-16T07:57:54.139Z,2.83
2024-01-16T08:00:23.079Z,3.72
2024-01-16T08:02:50.927Z,3.65
2024-01-16T08:05:18.779Z,6.70
2024-01-16T08:07:47.192Z,4.25
2024-01-16T08:10:19.307Z,5.40
2024-01-16T08:12:47.459Z,3.88
2024-01-16T08:15:15.376Z,4.43
2024-01-16T08:17:43.428Z,5.20
2024-01-16T08:20:12.242Z,7.95
2024-01-16T08:22:40.086Z,5.55
2024-01-16T08:25:09.184Z,5.78
2024-01-16T08:27:39.222Z,5.20
2024-01-16T08:30:08.660Z,6.35
2024-01-16T08:32:36.638Z,5.68
2024-01-16T08:35:06.368Z,6.13
2024-01-16T08:37:35.796Z,6.35
2024-01-16T08:40:04.854Z,5.93
2024-01-16T08:42:32.833Z,6.68
2024-01-16T08:45:02.076Z,4.85
2024-01-16T08:47:30.064Z,7.18
2024-01-16T08:49:58.045Z,8.48
2024-01-16T08:52:25.881Z,5.97
2024-01-16T08:54:53.683Z,7.38
2024-01-16T08:57:24.521Z,6.07
2024-01-16T08:59:53.087Z,6.75
2024-01-16T09:02:22.678Z,5.47
2024-01-16T09:04:51.595Z,5.30
2024-01-16T09:07:20.011Z,5.40
2024-01-16T09:09:48.082Z,6.75
2024-01-16T09:12:17.119Z,5.75
2024-01-16T09:14:44.939Z,7.45
2024-01-16T09:17:12.784Z,7.18
2024-01-16T09:19:42.302Z,9.38
2024-01-16T09:22:10.075Z,4.28
2024-01-16T09:24:37.867Z,6.82
2024-01-16T09:27:07.623Z,6.90
2024-01-16T09:32:03.771Z,7.68
2024-01-16T09:34:31.680Z,7.90
2024-01-16T09:37:03.462Z,5.28
2024-01-16T09:39:32.616Z,5.30
2024-01-16T09:42:02.929Z,7.47
2024-01-16T09:44:31.081Z,7.32
2024-01-16T09:46:59.890Z,5.25
2024-01-16T09:49:27.991Z,6.85
2024-01-16T09:51:55.787Z,6.93
2024-01-16T09:54:24.867Z,8.13
2024-01-16T09:56:53.811Z,3.85
2024-01-16T09:59:22.882Z,6.82
2024-01-16T10:01:51.222Z,3.78
2024-01-16T10:04:19.153Z,6.20
2024-01-16T10:06:48.511Z,6.35
2024-01-16T10:09:18.027Z,5.05
2024-01-16T10:11:47.464Z,5.97
2024-01-16T10:14:15.814Z,6.50
2024-01-16T10:17:00.403Z,5.75
2024-01-16T10:19:39.484Z,5.65
2024-01-16T10:22:14.385Z,7.43
2024-01-16T10:24:42.719Z,6.78
2024-01-16T10:27:11.876Z,8.40
2024-01-16T10:29:56.518Z,5.32
2024-01-16T10:32:31.800Z,7.80
2024-01-16T10:35:07.518Z,5.32
2024-01-16T10:37:46.291Z,9.25
2024-01-16T10:40:17.349Z,6.40
2024-01-16T10:42:47.541Z,6.70
2024-01-16T10:45:21.212Z,7.10
2024-01-16T10:47:49.458Z,6.60
2024-01-16T10:50:17.559Z,4.70
2024-01-16T10:52:49.652Z,7.03
2024-01-16T10:55:22.152Z,6.68
2024-01-16T10:57:52.085Z,4.70
2024-01-16T11:00:21.532Z,6.35
2024-01-16T11:02:57.494Z,5.22
2024-01-16T11:05:27.564Z,8.57
2024-01-16T11:07:56.649Z,7.78
2024-01-16T11:10:25.829Z,8.70
2024-01-16T11:12:55.143Z,6.72
2024-01-16T11:15:23.683Z,8.20
2024-01-16T11:17:52.016Z,8.20
2024-01-16T11:20:37.857Z,6.40
2024-01-16T11:23:07.925Z,5.45
2024-01-16T11:25:35.873Z,9.00
2024-01-16T11:28:12.826Z,6.18
2024-01-16T11:30:41.577Z,7.82
2024-01-16T11:33:44.763Z,8.05
2024-01-16T11:36:48.772Z,8.25
2024-01-16T11:39:20.179Z,9.93
2024-01-16T11:41:55.685Z,6.03
2024-01-16T11:44:45.168Z,12.55
2024-01-16T11:47:18.203Z,8.80
2024-01-16T11:49:47.798Z,7.03
2024-01-16T11:52:15.946Z,7.70
2024-01-16T11:54:44.193Z,10.07
2024-01-16T11:57:29.182Z,6.60
2024-01-16T12:00:02.524Z,7.47
2024-01-16T12:02:52.177Z,7.75
2024-01-16T12:05:20.077Z,9.65
2024-01-16T12:07:50.507Z,9.00
2024-01-16T12:10:19.611Z,11.95
2024-01-16T12:12:48.114Z,7.70
2024-01-16T12:15:18.494Z,5.88
2024-01-16T12:17:56.987Z,9.93
2024-01-16T12:20:25.688Z,10.65
2024-01-16T12:22:57.903Z,10.25
2024-01-16T12:25:59.269Z,7.55
2024-01-16T12:28:27.933Z,8.35
2024-01-16T12:31:02.345Z,9.23
2024-01-16T12:33:31.553Z,7.90
2024-01-16T12:36:04.109Z,8.35
2024-01-16T12:38:32.239Z,10.48
2024-01-16T12:41:03.431Z,8.32
2024-01-16T12:43:31.646Z,8.43
2024-01-16T12:46:01.741Z,10.10
2024-01-16T12:48:29.947Z,8.07
2024-01-16T12:51:01.337Z,9.60
2024-01-16T12:53:29.579Z,8.65
2024-01-16T12:56:01.402Z,7.15
2024-01-16T12:58:35.647Z,7.75
2024-01-16T13:01:35.146Z,6.93
2024-01-16T13:04:08.049Z,6.70
2024-01-16T13:06:36.844Z,6.88
2024-01-16T13:09:11.532Z,6.05
2024-01-16T13:11:51.695Z,6.10
2024-01-16T13:14:21.936Z,5.30
2024-01-16T13:16:51.693Z,7.28
2024-01-16T13:19:20.471Z,5.90
2024-01-16T13:21:48.612Z,6.53
2024-01-16T13:24:18.397Z,7.50
2024-01-16T13:26:46.501Z,6.45
2024-01-16T13:29:14.767Z,6.15
2024-01-16T13:31:42.645Z,5.28
2024-01-16T13:34:11.932Z,7.40
2024-01-16T13:36:53.982Z,6.78
2024-01-16T13:39:27.751Z,6.65
2024-01-16T13:41:55.901Z,6.55
2024-01-16T13:44:23.804Z,5.00
2024-01-16T13:47:00.896Z,5.25
2024-01-16T13:49:35.578Z,4.65
2024-01-16T13:52:04.287Z,5.78
2024-01-16T13:54:32.314Z,4.32
2024-01-16T13:57:06.705Z,5.05
2024-01-16T14:02:05.439Z,3.50
2024-01-16T14:04:34.042Z,5.20
2024-01-16T14:07:12.169Z,3.70
2024-01-16T14:09:44.355Z,3.45
2024-01-16T14:12:13.512Z,3.40
2024-01-16T14:14:42.704Z,4.15
2024-01-16T14:17:10.910Z,4.35
2024-01-16T14:19:40.056Z,3.85
2024-01-16T14:22:09.435Z,4.70
2024-01-16T14:24:38.866Z,2.83
2024-01-16T14:27:08.172Z,3.95
2024-01-16T14:29:37.751Z,3.45
2024-01-16T14:34:33.493Z,3.10
2024-01-16T14:37:01.673Z,2.30
2024-01-16T14:39:32.187Z,2.97
2024-01-16T14:42:00.533Z,2.85
2024-01-16T14:44:28.484Z,2.65
2024-01-16T14:46:56.274Z,2.17
2024-01-16T14:49:24.196Z,2.70
2024-01-16T14:51:52.639Z,3.53
2024-01-16T14:54:20.544Z,2.60
2024-01-16T14:56:50.110Z,3.30
2024-01-16T14:59:18.135Z,3.15
2024-01-16T15:01:46.405Z,3.45
2024-01-16T15:04:14.428Z,2.97
2024-01-16T15:06:42.700Z,2.85
2024-01-16T15:09:13.266Z,3.50
2024-01-16T15:11:41.172Z,3.58
2024-01-16T15:14:11.332Z,2.92
2024-01-16T15:16:39.137Z,3.03
2024-01-16T15:19:06.956Z,2.72
2024-01-16T15:21:34.731Z,1.95
2024-01-16T15:24:02.690Z,3.10
2024-01-16T15:26:32.222Z,3.05
2024-01-16T15:28:59.977Z,2.58
2024-01-16T15:31:29.108Z,2.42
2024-01-16T15:33:57.190Z,1.80
2024-01-16T15:36:25.011Z,3.00
2024-01-16T15:38:52.869Z,4.05
2024-01-16T15:41:20.790Z,3.45
2024-01-16T15:43:48.695Z,2.42
2024-01-16T15:46:17.595Z,4.53
2024-01-16T15:48:46.685Z,4.05
2024-01-16T15:51:14.609Z,4.47
2024-01-16T15:53:42.450Z,6.63
2024-01-16T15:56:10.656Z,7.43
2024-01-16T15:58:38.469Z,4.25
2024-01-16T16:01:06.276Z,2.90
2024-01-16T16:03:34.256Z,3.33
2024-01-16T16:06:05.992Z,3.85
2024-01-16T16:08:33.928Z,5.10
2024-01-16T16:11:01.862Z,5.50
2024-01-16T16:13:32.457Z,5.00
2024-01-16T16:16:00.984Z,4.30
2024-01-16T16:18:28.796Z,3.75
2024-01-16T16:20:56.760Z,3.75
2024-01-16T16:23:25.925Z,11.90
2024-01-16T16:25:53.911Z,14.98
2024-01-16T16:28:21.741Z,6.05
2024-01-16T16:30:49.610Z,6.63
2024-01-16T16:33:17.562Z,5.55
2024-01-16T16:35:46.314Z,4.88
2024-01-16T16:38:14.136Z,4.72
2024-01-16T16:40:43.261Z,5.65
2024-01-16T16:43:11.096Z,4.40
2024-01-16T16:45:39.260Z,4.45
2024-01-16T16:48:07.292Z,3.45
2024-01-16T16:50:35.148Z,2.60
2024-01-16T16:53:04.058Z,3.92
2024-01-16T16:55:31.897Z,4.68
2024-01-16T16:58:01.129Z,3.85
2024-01-16T17:00:28.993Z,3.28
2024-01-16T17:02:57.027Z,4.38
2024-01-16T17:05:25.089Z,4.97
2024-01-16T17:07:52.989Z,4.28
2024-01-16T17:10:20.817Z,2.83
2024-01-16T17:12:49.208Z,3.88
2024-01-16T17:15:18.499Z,3.75
2024-01-16T17:17:46.476Z,4.93
2024-01-16T17:20:14.600Z,6.15
2024-01-16T17:22:42.682Z,5.63
2024-01-16T17:25:11.800Z,5.35
2024-01-16T17:27:40.198Z,7.60
2024-01-16T17:30:09.592Z,5.35
2024-01-16T17:32:39.027Z,4.82
2024-01-16T17:35:08.675Z,4.10
2024-01-16T17:37:36.406Z,3.42
2024-01-16T17:40:13.174Z,3.92
2024-01-16T17:42:41.189Z,4.15
2024-01-16T17:45:10.588Z,4.88
2024-01-16T17:47:40.095Z,6.40
2024-01-16T17:50:10.977Z,6.05
2024-01-16T17:52:38.867Z,5.47
2024-01-16T17:55:07.696Z,5.22
2024-01-16T17:57:35.497Z,5.78
2024-01-16T18:00:06.099Z,9.00
2024-01-16T18:02:35.616Z,5.13
2024-01-16T18:05:11.143Z,5.95
2024-01-16T18:07:39.569Z,5.45
2024-01-16T18:10:09.998Z,6.65
2024-01-16T18:12:39.444Z,4.90
2024-01-16T18:15:13.101Z,5.88
2024-01-16T18:17:41.525Z,4.35
2024-01-16T18:20:11.963Z,5.88
2024-01-16T18:22:39.958Z,6.20
2024-01-16T18:25:09.822Z,8.77
2024-01-16T18:30:06.896Z,5.82
2024-01-16T18:32:35.409Z,6.82
2024-01-16T18:35:06.353Z,11.85
2024-01-16T18:37:37.272Z,8.25
2024-01-16T18:40:09.746Z,8.02
2024-01-16T18:42:37.522Z,6.38
2024-01-16T18:45:06.103Z,7.80
2024-01-16T18:47:34.172Z,9.30
2024-01-16T18:50:02.023Z,10.55
2024-01-16T18:52:29.786Z,11.68
2024-01-16T18:54:58.908Z,6.80
2024-01-16T18:57:26.901Z,5.75
2024-01-16T18:59:55.847Z,5.20
2024-01-16T19:02:26.965Z,5.88
2024-01-16T19:04:57.264Z,4.45
2024-01-16T19:07:25.073Z,6.10
2024-01-16T19:09:52.893Z,5.57
2024-01-16T19:12:22.009Z,8.10
2024-01-16T19:14:49.809Z,4.28
2024-01-16T19:17:17.661Z,6.90
2024-01-16T19:19:45.597Z,7.07
2024-01-16T19:22:13.366Z,5.63
2024-01-16T19:24:41.097Z,4.07
2024-01-16T19:27:08.998Z,15.20
2024-01-16T19:29:38.239Z,16.58
2024-01-16T19:32:06.799Z,7.07
2024-01-16T19:34:34.855Z,5.50
2024-01-16T19:37:02.728Z,8.25
2024-01-16T19:39:33.731Z,7.50
2024-01-16T19:42:01.810Z,6.10
2024-01-16T19:44:29.630Z,6.70
2024-01-16T19:46:58.731Z,6.15
2024-01-16T19:49:26.995Z,5.30
2024-01-16T19:51:54.753Z,6.70
2024-01-16T19:54:22.527Z,8.00
2024-01-16T19:56:50.442Z,5.88
2024-01-16T19:59:18.290Z,7.78
2024-01-16T20:01:46.093Z,8.43
2024-01-16T20:04:17.467Z,5.78
2024-01-16T20:06:46.504Z,7.07
2024-01-16T20:09:17.320Z,7.03
2024-01-16T20:11:46.176Z,4.32
2024-01-16T20:14:14.062Z,6.88
2024-01-16T20:16:42.122Z,6.47
2024-01-16T20:19:10.058Z,5.57
2024-01-16T20:21:39.299Z,4.80
2024-01-16T20:24:08.134Z,6.90
2024-01-16T20:26:37.554Z,5.22
2024-01-16T20:29:06.127Z,5.95
2024-01-16T20:31:34.747Z,6.18
2024-01-16T20:34:02.751Z,5.97
2024-01-16T20:36:30.763Z,6.43
2024-01-16T20:38:59.910Z,5.80
2024-01-16T20:41:27.704Z,5.45
2024-01-16T20:43:55.522Z,6.90
2024-01-16T20:46:24.261Z,5.05
2024-01-16T20:48:52.228Z,8.10
2024-01-16T20:51:20.077Z,4.47
2024-01-16T20:53:47.935Z,6.30
2024-01-16T20:56:17.148Z,5.38
2024-01-16T20:58:44.973Z,6.88
2024-01-16T21:01:13.113Z,6.97
2024-01-16T21:03:41.063Z,5.55
2024-01-16T21:06:10.513Z,5.85
2024-01-16T21:08:39.403Z,6.13
2024-01-16T21:11:07.311Z,6.13
2024-01-16T21:13:36.490Z,6.78
2024-01-16T21:16:07.559Z,4.85
2024-01-16T21:18:35.620Z,6.35
2024-01-16T21:21:03.615Z,5.25
2024-01-16T21:23:32.098Z,5.65
2024-01-16T21:25:59.950Z,4.80
2024-01-16T21:28:27.772Z,6.50
2024-01-16T21:31:02.355Z,5.85
2024-01-16T21:33:30.817Z,4.43
2024-01-16T21:35:58.902Z,6.40
2024-01-16T21:38:27.171Z,6.45
2024-01-16T21:40:55.029Z,5.50
2024-01-16T21:43:24.235Z,5.78
2024-01-16T21:45:52.133Z,5.22
2024-01-16T21:48:21.440Z,4.85
2024-01-16T21:50:49.403Z,5.50
2024-01-16T21:53:17.278Z,3.38
2024-01-16T21:55:45.465Z,5.63
2024-01-16T21:58:12.706Z,5.55
2024-01-16T22:00:41.506Z,4.50
2024-01-16T22:03:09.511Z,6.68
2024-01-16T22:05:41.939Z,8.10
2024-01-16T22:08:10.741Z,4.32
2024-01-16T22:10:42.878Z,4.70
2024-01-16T22:13:12.582Z,5.32
2024-01-16T22:15:40.488Z,6.35
2024-01-16T22:18:08.501Z,4.50
2024-01-16T22:20:37.724Z,4.75
2024-01-16T22:23:05.702Z,6.30
2024-01-16T22:25:33.512Z,4.10
2024-01-16T22:28:01.344Z,5.63
2024-01-16T22:30:29.241Z,4.85
2024-01-16T22:32:57.312Z,4.57
2024-01-16T22:35:25.278Z,4.78
2024-01-16T22:37:54.636Z,4.63
2024-01-16T22:40:22.470Z,3.55
2024-01-16T22:42:50.263Z,4.97
2024-01-16T22:45:18.273Z,5.05
2024-01-16T22:47:46.189Z,6.15
2024-01-16T22:50:14.091Z,5.15
2024-01-16T22:52:42.311Z,4.45
2024-01-16T22:55:11.657Z,3.67
2024-01-16T22:57:39.436Z,5.07
2024-01-16T23:00:18.357Z,4.50
2024-01-16T23:02:48.349Z,3.67
2024-01-16T23:05:17.736Z,3.30
2024-01-16T23:07:46.006Z,5.32
2024-01-16T23:10:16.034Z,5.70
2024-01-16T23:12:44.931Z,3.58
2024-01-16T23:15:13.227Z,3.53
2024-01-16T23:17:41.055Z,3.70
2024-01-16T23:20:13.954Z,6.00
2024-01-16T23:22:42.297Z,4.53
2024-01-16T23:25:11.570Z,4.68
2024-01-16T23:27:41.561Z,5.43
2024-01-16T23:30:11.501Z,5.82
2024-01-16T23:32:39.598Z,3.78
2024-01-16T23:35:08.085Z,3.17
2024-01-16T23:37:37.287Z,7.45
2024-01-16T23:40:06.120Z,6.38
2024-01-16T23:42:34.028Z,6.53
2024-01-16T23:45:04.928Z,7.45
2024-01-16T23:47:34.874Z,5.35
2024-01-16T23:50:02.850Z,5.57
2024-01-16T23:52:30.703Z,6.45
2024-01-16T23:54:58.526Z,5.38
2024-01-16T23:57:26.314Z,7.80
2024-01-16T23:59:54.267Z,7.38
